createdAt,value
2022-07-29T00:04:50.589Z,86.01
2022-07-29T00:14:52.191Z,87.53
2022-07-29T00:24:53.737Z,88.74
2022-07-29T00:35:14.148Z,92.01
2022-07-29T00:45:15.504Z,95.08
2022-07-29T00:55:17.001Z,98.67
2022-07-29T01:05:18.393Z,98.52
2022-07-29T01:15:19.805Z,96.73
2022-07-29T01:25:21.168Z,96.71
2022-07-29T01:35:22.538Z,100.00
2022-07-29T01:45:24.021Z,99.70
2022-07-29T01:55:25.405Z,98.46
2022-07-29T02:05:26.779Z,95.39
2022-07-29T02:15:28.218Z,96.88
2022-07-29T02:25:37.239Z,94.92
2022-07-29T02:35:39.659Z,97.67
2022-07-29T02:45:41.008Z,95.88
2022-07-29T02:55:42.541Z,94.52
2022-07-29T03:05:43.879Z,94.29
2022-07-29T03:15:45.276Z,94.11
2022-07-29T03:25:46.689Z,93.00
2022-07-29T03:35:48.104Z,93.28
2022-07-29T03:45:49.469Z,96.63
2022-07-29T03:55:50.713Z,98.18
2022-07-29T04:05:52.088Z,94.43
2022-07-29T04:15:53.567Z,92.28
2022-07-29T04:25:54.956Z,90.53
2022-07-29T04:35:56.260Z,85.19
2022-07-29T04:45:57.663Z,85.15
2022-07-29T04:55:59.258Z,81.81
2022-07-29T05:06:00.600Z,78.57
2022-07-29T05:16:02.036Z,73.01
2022-07-29T05:26:03.418Z,70.08
2022-07-29T05:36:06.551Z,68.69
2022-07-29T05:46:08.148Z,69.79
2022-07-29T05:56:10.233Z,69.22
2022-07-29T06:06:11.571Z,68.65
2022-07-29T06:16:12.964Z,69.55
2022-07-29T06:26:17.251Z,70.49
2022-07-29T06:36:18.587Z,70.50
2022-07-29T06:46:20.639Z,69.84
2022-07-29T06:56:22.088Z,69.61
2022-07-29T07:06:23.416Z,77.55
2022-07-29T07:16:24.815Z,69.33
2022-07-29T07:26:26.368Z,65.07
2022-07-29T07:36:27.695Z,66.45
2022-07-29T07:46:29.064Z,60.46
2022-07-29T07:56:35.024Z,60.26
2022-07-29T08:06:37.863Z,61.78
2022-07-29T08:16:39.320Z,61.35
2022-07-29T08:26:40.685Z,56.87
2022-07-29T08:36:42.032Z,53.33
2022-07-29T08:46:43.383Z,53.13
2022-07-29T08:56:44.709Z,50.95
2022-07-29T09:06:46.435Z,50.03
2022-07-29T09:16:53.273Z,48.67
2022-07-29T09:26:55.559Z,46.98
2022-07-29T09:36:58.137Z,48.01
2022-07-29T09:46:59.917Z,45.70
2022-07-29T09:57:01.310Z,45.48
2022-07-29T10:07:04.996Z,46.20
2022-07-29T10:17:06.682Z,47.03
2022-07-29T10:27:08.053Z,45.52
2022-07-29T10:37:10.151Z,43.42
2022-07-29T10:47:11.503Z,43.23
2022-07-29T10:57:13.729Z,41.38
2022-07-29T11:07:17.465Z,40.80
2022-07-29T11:17:18.926Z,38.39
2022-07-29T11:27:23.114Z,36.33
2022-07-29T11:37:27.971Z,36.91
2022-07-29T11:47:30.210Z,36.07
2022-07-29T11:57:39.680Z,36.97
2022-07-29T12:07:46.017Z,36.94
2022-07-29T12:17:48.956Z,36.16
2022-07-29T12:27:50.360Z,34.47
2022-07-29T12:37:53.202Z,32.69
2022-07-29T12:47:57.148Z,33.36
2022-07-29T12:57:58.634Z,33.00
2022-07-29T13:07:59.884Z,31.65
2022-07-29T13:18:01.954Z,32.30
2022-07-29T13:28:03.311Z,32.04
2022-07-29T13:38:04.653Z,33.31
2022-07-29T13:48:07.247Z,32.04
2022-07-29T13:58:08.594Z,30.85
2022-07-29T14:08:10.026Z,31.60
2022-07-29T14:18:11.339Z,31.47
2022-07-29T14:28:12.753Z,30.25
2022-07-29T14:38:16.140Z,30.17
2022-07-29T14:48:17.499Z,28.77
2022-07-29T14:58:19.216Z,28.31
2022-07-29T15:08:20.533Z,28.09
2022-07-29T15:18:25.592Z,27.29
2022-07-29T15:28:27.277Z,27.00
2022-07-29T15:38:29.124Z,27.61
2022-07-29T15:48:30.575Z,26.53
2022-07-29T15:58:31.965Z,27.75
2022-07-29T16:08:33.296Z,26.61
2022-07-29T16:18:34.904Z,26.28
2022-07-29T16:28:36.277Z,25.42
2022-07-29T16:38:38.216Z,24.34
2022-07-29T16:48:48.830Z,21.57
2022-07-29T16:58:50.127Z,21.02
2022-07-29T17:08:51.482Z,21.55
2022-07-29T17:18:52.904Z,22.41
2022-07-29T17:28:54.174Z,23.03
2022-07-29T17:38:55.547Z,24.48
2022-07-29T17:48:56.944Z,24.43
2022-07-29T17:59:01.454Z,26.01
2022-07-29T18:09:02.781Z,26.25
2022-07-29T18:19:04.126Z,27.69
2022-07-29T18:29:05.461Z,28.78
2022-07-29T18:39:10.600Z,31.35
2022-07-29T18:49:16.829Z,32.75
2022-07-29T18:59:20.216Z,34.46
2022-07-29T19:09:21.568Z,37.90
2022-07-29T19:19:22.901Z,39.31
2022-07-29T19:29:25.385Z,39.75
2022-07-29T19:39:35.267Z,41.69
2022-07-29T19:49:39.394Z,44.11
2022-07-29T19:59:40.767Z,45.28
2022-07-29T20:09:42.177Z,46.78
2022-07-29T20:19:43.653Z,46.04
2022-07-29T20:29:45.047Z,44.69
2022-07-29T20:39:49.568Z,45.71
2022-07-29T20:49:50.904Z,52.13
2022-07-29T20:59:52.273Z,54.70
2022-07-29T21:09:53.601Z,54.57
2022-07-29T21:19:55.414Z,54.97
2022-07-29T21:29:56.697Z,56.00
2022-07-29T21:40:01.625Z,57.07
2022-07-29T21:50:03.111Z,58.17
2022-07-29T22:00:04.441Z,58.30
2022-07-29T22:10:05.791Z,59.25
2022-07-29T22:20:07.143Z,59.81
2022-07-29T22:30:08.566Z,61.33
2022-07-29T22:40:12.015Z,62.56
2022-07-29T22:50:14.726Z,64.84
2022-07-29T23:00:16.183Z,66.31
2022-07-29T23:10:17.571Z,70.41
2022-07-29T23:20:22.554Z,71.84
2022-07-29T23:30:23.976Z,73.21
2022-07-29T23:40:26.639Z,75.78
2022-07-29T23:50:28.993Z,76.40
